Time;durP1;ratioP1;P1;durP2;ratioP2;P2;SDS_P1;SDS_P2;PMS_P1;PMS_P2;Temp;Humidity;BMP_temperature;BMP_pressure;BME280_temperature;BME280_humidity;BME280_pressure;Samples;Min_cycle;Max_cycle;Signal;HPM_P1;HPM_P2
2021/09/30 00:00:19;;;;;;;20.88;10.25;;;;;;;11.35;69.18;100950.52;1653443;85;27506;-59
2021/09/30 00:02:47;;;;;;;24.98;11.60;;;;;;;11.33;69.07;100951.36;1653489;86;25753;-59
2021/09/30 00:05:15;;;;;;;26.70;10.58;;;;;;;11.33;69.00;100955.98;1692935;84;25494;-59
2021/09/30 00:07:42;;;;;;;26.48;11.85;;;;;;;11.34;69.07;100956.22;1704855;84;25577;-61
2021/09/30 00:10:15;;;;;;;25.75;11.30;;;;;;;11.33;69.06;100953.28;1694324;84;25284;-60
2021/09/30 00:12:46;;;;;;;22.77;10.70;;;;;;;11.32;68.97;100948.42;1689138;84;27332;-60
2021/09/30 00:15:14;;;;;;;22.00;10.93;;;;;;;11.31;68.97;100952.78;1688607;84;25732;-60
2021/09/30 00:34:20;;;;;;;24.12;10.23;;;;;;;11.25;69.54;100945.27;1694692;84;25541;-60
2021/09/30 00:42:00;;;;;;;25.32;11.18;;;;;;;11.25;69.24;100939.86;1706110;82;25469;-60
2021/09/30 00:50:05;;;;;;;18.95;11.55;;;;;;;11.19;69.50;100948.63;1716135;83;25495;-59
2021/09/30 02:29:43;;;;;;;31.05;11.85;;;;;;;11.02;70.54;100955.95;1755462;81;27435;-60
2021/09/30 02:59:42;;;;;;;23.42;10.45;;;;;;;10.84;71.41;100971.12;1752176;81;25671;-60
2021/09/30 03:02:10;;;;;;;30.20;11.43;;;;;;;10.84;71.16;100969.77;1752102;81;25487;-58
2021/09/30 03:04:39;;;;;;;23.62;10.55;;;;;;;10.85;71.25;100970.56;1752083;81;25857;-58
2021/09/30 03:07:07;;;;;;;23.18;10.88;;;;;;;10.83;71.19;100963.30;1752180;81;25357;-59
2021/09/30 03:09:40;;;;;;;26.17;11.28;;;;;;;10.83;71.27;100972.21;1752103;81;27955;-59
2021/09/30 03:12:18;;;;;;;27.77;11.10;;;;;;;10.84;71.40;100982.48;1752105;81;25727;-59
2021/09/30 03:14:46;;;;;;;27.27;11.43;;;;;;;10.86;71.33;100982.98;1751312;81;25510;-59
2021/09/30 03:17:10;;;;;;;33.00;11.73;;;;;;;10.86;71.40;100983.55;1751528;80;25624;-58
2021/09/30 03:22:16;;;;;;;26.75;11.90;;;;;;;10.83;71.82;100983.03;1752105;81;27324;-59
2021/09/30 03:24:48;;;;;;;26.33;10.72;;;;;;;10.77;72.11;100988.26;1752057;81;25459;-59
2021/09/30 03:27:16;;;;;;;32.90;11.90;;;;;;;10.71;72.12;100975.92;1752160;81;25720;-59
2021/09/30 03:29:43;;;;;;;26.62;11.45;;;;;;;10.68;72.43;100979.20;1752082;81;26020;-59
2021/09/30 03:32:11;;;;;;;28.70;12.47;;;;;;;10.68;72.68;100987.32;1752195;81;25481;-58
2021/09/30 03:34:37;;;;;;;33.83;14.65;;;;;;;10.65;73.14;100987.90;1752119;81;27504;-58
2021/09/30 03:37:05;;;;;;;25.52;11.95;;;;;;;10.57;73.23;100980.44;1751994;81;25509;-58
2021/09/30 03:39:32;;;;;;;32.45;12.73;;;;;;;10.52;73.57;100982.69;1752087;81;25632;-59
2021/09/30 03:41:59;;;;;;;21.00;12.05;;;;;;;10.50;73.78;100983.50;1752012;81;25454;-58
2021/09/30 03:44:25;;;;;;;28.00;12.58;;;;;;;10.54;74.04;100985.07;1752165;81;25629;-61
2021/09/30 03:46:53;;;;;;;27.98;12.88;;;;;;;10.52;74.35;100981.33;1752068;81;27322;-58
2021/09/30 03:49:29;;;;;;;22.17;11.50;;;;;;;10.45;74.96;100981.69;1752035;81;25513;-61
2021/09/30 03:54:40;;;;;;;27.65;13.00;;;;;;;10.27;75.73;100991.34;1752176;81;25663;-59
2021/09/30 03:57:09;;;;;;;27.32;13.45;;;;;;;10.17;76.03;100988.77;1751285;81;25457;-60
2021/09/30 03:59:33;;;;;;;34.25;13.03;;;;;;;10.08;76.45;100993.20;1751513;80;27328;-61
2021/09/30 04:02:02;;;;;;;29.92;15.32;;;;;;;9.99;76.73;100986.81;1751934;81;25619;-61
2021/09/30 04:04:36;;;;;;;30.75;14.87;;;;;;;9.95;77.17;100985.79;1752103;81;25481;-61
2021/09/30 04:07:08;;;;;;;27.40;13.80;;;;;;;9.92;77.68;100988.50;1751896;81;25698;-61
2021/09/30 04:09:38;;;;;;;32.28;14.20;;;;;;;9.85;77.84;100984.79;1752074;81;25690;-60
2021/09/30 04:12:09;;;;;;;26.60;14.45;;;;;;;9.80;78.27;100986.20;1752061;81;27343;-59
2021/09/30 04:14:37;;;;;;;28.27;13.90;;;;;;;9.77;78.47;100989.47;1752006;81;25588;-59
2021/09/30 04:17:05;;;;;;;25.70;13.22;;;;;;;9.74;78.59;100995.47;1752057;81;25608;-58
2021/09/30 04:19:32;;;;;;;27.40;14.58;;;;;;;9.72;78.96;100997.09;1752053;81;25473;-58
2021/09/30 04:21:59;;;;;;;30.92;14.58;;;;;;;9.69;79.24;100990.12;1752113;81;25614;-59
2021/09/30 04:24:26;;;;;;;26.55;13.18;;;;;;;9.66;79.20;100985.28;1752066;81;27395;-60
2021/09/30 04:26:55;;;;;;;28.95;13.05;;;;;;;9.64;79.75;100988.27;1752071;81;25447;-59
2021/09/30 04:29:23;;;;;;;30.60;14.03;;;;;;;9.61;79.69;100994.23;1752212;81;25681;-59
2021/09/30 04:31:49;;;;;;;26.45;13.40;;;;;;;9.58;80.01;100996.14;1752104;81;25663;-60
2021/09/30 04:34:19;;;;;;;25.25;14.53;;;;;;;9.58;80.19;100989.95;1752079;81;25610;-60
2021/09/30 04:36:48;;;;;;;28.38;14.38;;;;;;;9.56;80.49;100991.58;1752146;81;27437;-58
2021/09/30 04:39:16;;;;;;;30.32;13.93;;;;;;;9.53;80.53;100994.31;1752077;81;25655;-59
2021/09/30 04:41:44;;;;;;;34.48;13.50;;;;;;;9.52;80.73;100995.95;1752047;81;25484;-60
2021/09/30 04:44:13;;;;;;;27.85;13.43;;;;;;;9.49;80.78;100996.52;1751981;81;25604;-60
2021/09/30 04:46:40;;;;;;;31.47;15.10;;;;;;;9.48;81.10;100994.89;1752326;81;25724;-60
2021/09/30 04:49:07;;;;;;;30.27;14.58;;;;;;;9.48;81.23;101002.47;1752047;81;27325;-59
2021/09/30 04:51:35;;;;;;;32.23;15.45;;;;;;;9.49;81.58;101000.02;1751933;81;25684;-59
2021/09/30 04:54:02;;;;;;;35.13;15.20;;;;;;;9.49;81.56;100999.21;1752023;81;25546;-59
2021/09/30 04:56:29;;;;;;;27.82;14.90;;;;;;;9.48;81.56;101005.17;1751970;81;25643;-59
2021/09/30 04:58:56;;;;;;;31.87;14.73;;;;;;;9.49;81.73;101005.97;1752022;81;25624;-59
2021/09/30 05:01:23;;;;;;;30.27;14.87;;;;;;;9.46;81.89;101008.67;1752005;81;27332;-59
2021/09/30 05:03:50;;;;;;;24.18;14.10;;;;;;;9.44;81.92;101010.86;1751940;81;25748;-60
2021/09/30 05:06:17;;;;;;;27.93;14.93;;;;;;;9.45;82.18;101013.00;1752040;81;25710;-60
2021/09/30 05:08:47;;;;;;;31.12;14.68;;;;;;;9.45;82.29;101017.05;1751918;81;26341;-60
2021/09/30 05:11:12;;;;;;;32.93;16.17;;;;;;;9.44;82.37;101019.52;1752039;81;25638;-61
2021/09/30 05:13:41;;;;;;;36.80;16.27;;;;;;;9.43;82.45;101025.98;1752023;81;27294;-62
2021/09/30 05:16:11;;;;;;;25.82;14.65;;;;;;;9.41;82.59;101022.77;1752186;81;25826;-62
2021/09/30 05:18:46;;;;;;;30.95;15.45;;;;;;;9.39;82.47;101027.10;1752033;81;25464;-63
2021/09/30 05:21:08;;;;;;;37.70;16.05;;;;;;;9.41;83.02;101030.88;1751212;81;26652;-61
2021/09/30 05:23:35;;;;;;;28.10;16.00;;;;;;;9.39;82.96;101036.55;1752012;81;25715;-61
2021/09/30 05:26:02;;;;;;;31.20;16.10;;;;;;;9.43;83.27;101037.62;1751974;81;27326;-60
2021/09/30 05:28:30;;;;;;;33.33;16.50;;;;;;;9.45;83.40;101042.70;1751938;81;25515;-62
2021/09/30 05:31:00;;;;;;;29.27;15.70;;;;;;;9.49;83.66;101044.56;1752018;81;25503;-61
2021/09/30 05:33:27;;;;;;;;;;;;;;;9.51;83.55;101049.13;1754588;81;25649;-62
2021/09/30 05:35:54;;;;;;;30.25;14.55;;;;;;;9.50;83.35;101046.72;1752000;81;25695;-61
2021/09/30 05:38:20;;;;;;;29.82;16.45;;;;;;;9.46;83.37;101053.78;1751990;81;27334;-63
2021/09/30 05:40:50;;;;;;;28.42;14.50;;;;;;;9.46;83.58;101049.73;1751842;81;25675;-63
2021/09/30 05:43:22;;;;;;;32.80;15.75;;;;;;;9.46;83.71;101054.58;1752097;81;25695;-61
2021/09/30 05:45:52;;;;;;;36.20;16.87;;;;;;;9.45;83.71;101054.86;1751945;80;27867;-61
2021/09/30 05:48:16;;;;;;;31.30;16.25;;;;;;;9.42;83.75;101063.00;1751389;81;25525;-62
2021/09/30 05:50:42;;;;;;;34.75;16.27;;;;;;;9.41;83.83;101063.27;1752009;81;26954;-61
2021/09/30 05:53:09;;;;;;;37.25;16.27;;;;;;;9.39;83.98;101062.76;1751918;81;25454;-62
2021/09/30 05:55:36;;;;;;;32.65;15.90;;;;;;;9.38;84.07;101070.06;1751944;81;25525;-64
2021/09/30 05:58:02;;;;;;;33.48;16.32;;;;;;;9.36;84.13;101073.56;1751924;81;27736;-64
2021/09/30 06:00:32;;;;;;;35.55;16.73;;;;;;;9.33;84.32;101072.25;1752022;81;25718;-65
2021/09/30 06:11:18;;;;;;;31.85;17.05;;;;;;;9.38;84.74;101089.48;1751943;81;25686;-64
2021/09/30 06:16:33;;;;;;;30.15;17.12;;;;;;;9.37;84.93;101102.19;1751946;81;27331;-62
2021/09/30 06:18:58;;;;;;;39.75;19.00;;;;;;;9.35;85.11;101101.11;1751853;81;25663;-61
2021/09/30 06:21:25;;;;;;;37.42;17.80;;;;;;;9.38;85.30;101107.03;1751990;81;25673;-62
2021/09/30 06:23:52;;;;;;;30.45;16.12;;;;;;;9.37;85.33;101108.14;1751950;81;26216;-62
2021/09/30 06:26:19;;;;;;;34.67;18.23;;;;;;;9.39;85.35;101112.70;1752026;81;25636;-60
2021/09/30 06:28:46;;;;;;;43.45;19.10;;;;;;;9.40;85.34;101113.78;1751982;81;27903;-61
2021/09/30 06:31:13;;;;;;;33.33;17.25;;;;;;;9.41;85.66;101114.58;1751876;81;25476;-61
2021/09/30 06:33:39;;;;;;;35.17;18.15;;;;;;;9.41;85.66;101118.63;1751824;81;25541;-60
2021/09/30 06:36:06;;;;;;;33.48;17.05;;;;;;;9.44;85.77;101124.83;1750941;81;25799;-60
2021/09/30 06:38:33;;;;;;;32.42;18.30;;;;;;;9.44;85.86;101128.87;1751218;81;25486;-59
2021/09/30 06:40:59;;;;;;;37.98;18.25;;;;;;;9.45;85.80;101129.13;1751573;81;27333;-61
2021/09/30 06:43:26;;;;;;;33.78;18.25;;;;;;;9.45;86.01;101125.89;1747833;81;25836;-61
2021/09/30 06:45:53;;;;;;;38.55;18.52;;;;;;;9.49;86.29;101126.94;1741847;82;25533;-59
2021/09/30 06:48:21;;;;;;;35.83;18.52;;;;;;;9.52;86.21;101126.93;1741958;82;25615;-59
2021/09/30 06:50:48;;;;;;;41.48;18.35;;;;;;;9.55;86.14;101129.05;1742044;81;25715;-60
2021/09/30 06:53:15;;;;;;;33.02;17.02;;;;;;;9.54;86.03;101124.20;1742022;82;28041;-60
2021/09/30 06:55:43;;;;;;;36.20;18.48;;;;;;;9.53;86.07;101124.48;1741875;82;25523;-61
2021/09/30 06:58:11;;;;;;;36.70;18.37;;;;;;;9.55;86.32;101125.00;1741998;81;25612;-60
2021/09/30 07:00:40;;;;;;;39.03;18.25;;;;;;;9.58;86.35;101123.09;1741918;82;25697;-60
2021/09/30 07:03:08;;;;;;;32.80;17.65;;;;;;;9.60;86.75;101123.61;1741243;82;25792;-60
2021/09/30 07:05:35;;;;;;;32.97;18.10;;;;;;;9.63;86.69;101123.60;1741920;82;27435;-60
2021/09/30 07:08:06;;;;;;;43.83;18.75;;;;;;;9.64;86.77;101124.67;1741884;82;25485;-61
2021/09/30 07:10:33;;;;;;;31.87;18.17;;;;;;;9.66;86.94;101131.15;1741404;81;25730;-62
2021/09/30 07:12:59;;;;;;;36.05;18.07;;;;;;;9.65;86.64;101133.05;1740636;82;25768;-62
2021/09/30 07:15:26;;;;;;;38.53;18.62;;;;;;;9.65;86.76;101140.33;1741893;82;25686;-62
2021/09/30 07:17:52;;;;;;;33.20;18.23;;;;;;;9.66;86.98;101141.40;1741334;82;27419;-62
2021/09/30 07:20:19;;;;;;;37.98;18.77;;;;;;;9.66;86.87;101146.00;1741844;82;25781;-63
2021/09/30 07:22:46;;;;;;;30.25;18.17;;;;;;;9.67;87.13;101146.25;1742048;81;25677;-63
2021/09/30 07:25:12;;;;;;;35.43;19.15;;;;;;;9.64;86.95;101136.03;1741833;82;25687;-62
2021/09/30 07:27:39;;;;;;;38.35;19.80;;;;;;;9.63;87.01;101135.75;1740904;82;25779;-64
2021/09/30 07:30:07;;;;;;;36.17;19.52;;;;;;;9.64;87.31;101130.62;1741613;82;29419;-61
2021/09/30 07:32:34;;;;;;;34.85;18.92;;;;;;;9.66;87.60;101134.64;1741666;81;25665;-61
2021/09/30 07:35:00;;;;;;;31.73;18.27;;;;;;;9.68;87.61;101141.13;1741946;82;25680;-61
2021/09/30 07:37:27;;;;;;;39.80;20.00;;;;;;;9.69;87.51;101139.48;1741852;82;25731;-62
2021/09/30 07:39:55;;;;;;;37.48;20.30;;;;;;;9.74;87.92;101140.00;1741963;82;25479;-62
2021/09/30 07:42:22;;;;;;;35.17;19.17;;;;;;;9.76;87.70;101145.13;1741958;82;28248;-62
2021/09/30 07:44:50;;;;;;;36.83;20.65;;;;;;;9.77;87.93;101138.06;1741876;81;25689;-62
2021/09/30 07:47:16;;;;;;;40.50;20.55;;;;;;;9.80;87.93;101131.30;1741953;82;25529;-62
2021/09/30 07:49:44;;;;;;;40.55;21.12;;;;;;;9.84;88.33;101139.09;1741955;82;25615;-63
2021/09/30 07:52:11;;;;;;;41.37;21.52;;;;;;;9.90;88.55;101144.17;1740725;82;25788;-62
2021/09/30 07:54:37;;;;;;;38.75;21.10;;;;;;;9.93;88.22;101145.52;1741955;82;27947;-61
2021/09/30 07:57:04;;;;;;;41.02;22.52;;;;;;;9.94;87.98;101140.91;1741811;82;25523;-62
2021/09/30 07:59:31;;;;;;;38.73;20.43;;;;;;;9.94;88.14;101139.00;1741972;82;25478;-62
2021/09/30 08:01:58;;;;;;;38.10;21.62;;;;;;;10.00;88.66;101147.89;1741869;82;25621;-62
2021/09/30 08:04:26;;;;;;;42.05;21.57;;;;;;;10.02;88.48;101143.80;1741938;81;25451;-61
2021/09/30 08:06:55;;;;;;;40.17;23.18;;;;;;;10.04;88.61;101141.61;1741878;82;27330;-61
2021/09/30 08:09:23;;;;;;;40.85;23.12;;;;;;;10.11;88.81;101150.75;1741836;82;25822;-60
2021/09/30 08:11:50;;;;;;;41.08;22.93;;;;;;;10.14;88.79;101163.70;1741945;81;25684;-60
2021/09/30 08:14:16;;;;;;;42.35;22.45;;;;;;;10.13;88.45;101170.22;1741945;82;25704;-60
2021/09/30 08:16:43;;;;;;;40.63;21.68;;;;;;;10.15;88.24;101169.91;1741895;82;25456;-58
2021/09/30 08:19:10;;;;;;;35.25;22.50;;;;;;;10.10;88.07;101179.69;1741951;82;27384;-59
2021/09/30 09:15:13;;;;;;;53.58;28.20;;;;;;;10.54;90.19;101221.23;1746647;81;25749;-60
2021/09/30 09:17:50;;;;;;;58.65;30.43;;;;;;;10.62;90.35;101225.20;1741803;81;25627;-60
2021/09/30 09:20:19;;;;;;;66.92;31.50;;;;;;;10.65;90.31;101228.70;1741959;82;25465;-60
2021/09/30 09:22:48;;;;;;;76.97;32.13;;;;;;;10.68;90.37;101232.19;1737263;81;25644;-60
2021/09/30 09:25:21;;;;;;;58.17;29.48;;;;;;;10.69;90.08;101232.42;1713146;82;25559;-58
2021/09/30 09:28:00;;;;;;;70.75;31.50;;;;;;;10.69;90.18;101235.69;1737472;82;27381;-59
2021/09/30 09:30:51;;;;;;;75.45;32.10;;;;;;;10.68;90.11;101236.80;1741772;81;25615;-57
2021/09/30 09:33:28;;;;;;;65.32;30.88;;;;;;;10.70;90.29;101236.76;1740467;82;25696;-58
2021/09/30 09:36:11;;;;;;;67.42;31.12;;;;;;;10.73;90.52;101244.31;1741586;82;25736;-58
2021/09/30 09:38:52;;;;;;;59.55;30.55;;;;;;;10.77;90.69;101246.69;1741946;82;25729;-59
2021/09/30 09:41:27;;;;;;;65.95;31.10;;;;;;;10.79;90.73;101252.61;1741901;82;27962;-57
2021/09/30 09:43:57;;;;;;;68.60;32.58;;;;;;;10.86;90.89;101247.42;1741841;82;25238;-58
2021/09/30 09:46:29;;;;;;;;;;;;;;;10.90;91.07;101255.24;1715980;82;25553;-57
2021/09/30 09:49:06;;;;;;;63.48;29.52;;;;;;;10.96;91.08;101258.13;1712640;82;26271;-56
2021/09/30 09:51:36;;;;;;;63.98;31.12;;;;;;;10.95;90.98;101251.92;1741646;82;25763;-57
2021/09/30 09:54:09;;;;;;;70.75;32.45;;;;;;;10.97;90.75;101257.84;1741254;81;27324;-56
2021/09/30 09:56:36;;;;;;;75.17;34.25;;;;;;;11.02;91.24;101256.44;1741781;82;25530;-56
2021/09/30 09:59:03;;;;;;;74.55;33.70;;;;;;;11.09;91.29;101254.73;1741870;82;25498;-57
2021/09/30 10:01:45;;;;;;;69.25;32.60;;;;;;;11.10;91.15;101251.47;1741879;81;25692;-58
2021/09/30 10:04:14;;;;;;;65.45;32.08;;;;;;;11.18;91.70;101250.84;1741935;82;25606;-56
2021/09/30 10:06:42;;;;;;;73.78;31.77;;;;;;;11.27;91.96;101251.00;1742026;81;27332;-57
2021/09/30 10:09:14;;;;;;;72.82;32.80;;;;;;;11.33;92.07;101249.30;1741810;81;25708;-57
2021/09/30 10:11:41;;;;;;;67.85;33.15;;;;;;;11.43;92.58;101241.59;1741951;82;25639;-57
2021/09/30 10:14:09;;;;;;;69.67;32.88;;;;;;;11.57;93.17;101241.67;1741969;82;26384;-56
2021/09/30 10:16:38;;;;;;;81.45;35.33;;;;;;;11.66;92.89;101245.33;1740868;81;25781;-55
2021/09/30 10:26:16;;;;;;;65.85;33.53;;;;;;;12.03;93.01;101251.07;1741824;82;25905;-56
2021/09/30 10:28:45;;;;;;;72.82;35.63;;;;;;;12.10;93.20;101249.58;1741179;82;25755;-56
2021/09/30 10:31:26;;;;;;;92.15;39.53;;;;;;;12.15;92.86;101252.20;1742028;82;25490;-56
2021/09/30 10:33:54;;;;;;;86.42;40.67;;;;;;;12.32;94.13;101254.93;1742090;81;27330;-55
2021/09/30 10:36:34;;;;;;;95.40;42.03;;;;;;;12.50;94.21;101261.42;1742183;82;25646;-53
2021/09/30 10:39:17;;;;;;;;;;;;;;;12.63;94.55;101269.33;1744627;82;25534;-54
2021/09/30 10:41:44;;;;;;;90.87;41.23;;;;;;;12.75;94.69;101264.77;1742035;82;25723;-55
2021/09/30 10:44:20;;;;;;;94.25;43.92;;;;;;;12.80;93.79;101262.75;1742057;82;25525;-55
2021/09/30 10:46:57;;;;;;;84.97;43.87;;;;;;;12.88;93.50;101254.48;1742072;82;27335;-54
2021/09/30 10:49:30;;;;;;;91.90;43.50;;;;;;;12.94;93.01;101257.89;1741991;81;25484;-56
2021/09/30 10:52:35;;;;;;;91.53;45.08;;;;;;;13.00;93.38;101270.28;1741992;82;25826;-56
2021/09/30 10:55:16;;;;;;;87.02;47.10;;;;;;;13.05;92.83;101266.90;1742012;82;25695;-54
2021/09/30 10:57:47;;;;;;;96.97;48.15;;;;;;;13.09;92.08;101260.30;1742063;82;25700;-58
2021/09/30 11:00:25;;;;;;;99.45;48.38;;;;;;;13.15;92.66;101265.91;1741277;82;28817;-57
2021/09/30 11:03:09;;;;;;;90.47;48.23;;;;;;;13.21;92.81;101266.06;1713372;82;25704;-58
2021/09/30 11:05:37;;;;;;;85.07;48.10;;;;;;;13.27;92.89;101270.83;1741637;82;25664;-57
2021/09/30 11:08:26;;;;;;;89.32;48.30;;;;;;;13.35;92.78;101276.12;1741403;82;25639;-57
2021/09/30 11:11:12;;;;;;;87.12;47.70;;;;;;;13.38;92.21;101274.16;1664928;86;25751;-57
2021/09/30 11:13:58;;;;;;;94.15;47.67;;;;;;;13.47;93.02;101279.67;1666024;86;27454;-57
2021/09/30 11:16:47;;;;;;;88.40;45.55;;;;;;;13.54;92.79;101290.97;1669336;85;25682;-57
2021/09/30 11:19:41;;;;;;;;;;;;;;;13.58;92.37;101293.31;1613822;88;25697;-56
2021/09/30 11:22:11;;;;;;;77.65;43.38;;;;;;;13.62;92.48;101294.30;1611482;89;26063;-57
2021/09/30 11:24:42;;;;;;;78.47;44.75;;;;;;;13.62;91.79;101292.41;1611565;89;25786;-58
2021/09/30 11:27:12;;;;;;;89.32;45.20;;;;;;;13.62;91.34;101292.41;1611332;89;27364;-58
2021/09/30 11:29:41;;;;;;;74.87;42.33;;;;;;;13.62;91.58;101295.13;1611393;89;25746;-58
2021/09/30 11:32:18;;;;;;;74.32;41.83;;;;;;;13.62;91.37;101287.50;1611384;89;25713;-57
2021/09/30 11:34:50;;;;;;;70.28;39.10;;;;;;;13.64;91.63;101279.30;1611442;89;25698;-58
2021/09/30 11:37:28;;;;;;;67.70;38.90;;;;;;;13.64;91.31;101280.67;1611429;89;25864;-58
2021/09/30 11:39:59;;;;;;;63.58;35.92;;;;;;;13.66;91.37;101282.29;1610416;89;27432;-57
2021/09/30 11:42:46;;;;;;;52.73;33.15;;;;;;;13.65;91.19;101277.38;1632156;87;25691;-57
2021/09/30 11:45:21;;;;;;;49.13;30.15;;;;;;;13.66;91.27;101283.65;1639656;87;25745;-58
2021/09/30 11:47:50;;;;;;;52.50;32.20;;;;;;;13.66;90.97;101286.36;1638986;87;25812;-58
2021/09/30 11:50:29;;;;;;;49.27;29.72;;;;;;;13.67;91.24;101286.59;1639479;87;25683;-57
2021/09/30 11:53:04;;;;;;;46.05;29.37;;;;;;;13.65;91.17;101288.26;1638885;87;27342;-59
2021/09/30 11:55:33;;;;;;;27.85;21.07;;;;;;;13.61;90.43;101289.98;1663600;81;26456;-58
2021/09/30 11:58:04;;;;;;;31.90;23.38;;;;;;;13.49;89.02;101295.95;1751832;81;25514;-58
2021/09/30 12:00:33;;;;;;;26.25;20.37;;;;;;;13.41;89.33;101293.94;1750597;81;25755;-58
2021/09/30 12:03:04;;;;;;;27.52;20.27;;;;;;;13.34;89.08;101297.63;1751294;81;25735;-58
2021/09/30 12:05:38;;;;;;;30.15;21.37;;;;;;;13.25;89.03;101298.86;1752020;81;27900;-57
2021/09/30 12:08:08;;;;;;;24.82;18.80;;;;;;;13.21;89.21;101295.12;1751980;81;25472;-59
2021/09/30 12:10:38;;;;;;;27.75;18.73;;;;;;;13.16;89.30;101296.58;1752040;81;25620;-58
2021/09/30 12:13:21;;;;;;;25.37;18.60;;;;;;;13.11;89.19;101303.47;1751962;81;25696;-60
2021/09/30 12:15:49;;;;;;;24.05;18.17;;;;;;;13.08;89.61;101304.89;1747650;81;25617;-58
2021/09/30 12:18:20;;;;;;;28.45;17.37;;;;;;;13.07;89.79;101316.28;1740709;82;28450;-58
2021/09/30 12:20:53;;;;;;;27.62;18.57;;;;;;;13.05;89.72;101313.07;1740940;82;26021;-57
2021/09/30 12:23:21;;;;;;;22.85;17.00;;;;;;;13.02;89.67;101316.95;1742000;82;25678;-60
2021/09/30 12:25:48;;;;;;;25.88;18.45;;;;;;;13.00;89.66;101319.16;1741096;82;26174;-60
2021/09/30 12:28:16;;;;;;;25.05;18.05;;;;;;;13.00;90.01;101317.80;1741869;82;25487;-60
2021/09/30 12:30:43;;;;;;;28.45;19.00;;;;;;;12.99;90.06;101314.29;1741880;82;28188;-60
2021/09/30 12:33:11;;;;;;;24.50;18.30;;;;;;;13.01;90.43;101323.50;1741881;82;25800;-61
2021/09/30 12:35:44;;;;;;;25.40;19.17;;;;;;;13.03;90.54;101318.56;1741944;82;25428;-60
2021/09/30 12:38:20;;;;;;;29.10;19.15;;;;;;;13.03;90.58;101322.08;1741853;82;27860;-61
2021/09/30 12:40:57;;;;;;;26.30;19.87;;;;;;;13.03;90.71;101323.44;1741188;81;25776;-60
2021/09/30 12:43:30;;;;;;;25.00;18.75;;;;;;;13.06;90.88;101321.48;1737286;81;27613;-59
2021/09/30 12:46:05;;;;;;;25.68;18.60;;;;;;;13.06;90.51;101322.84;1741414;82;25541;-60
2021/09/30 12:48:36;;;;;;;26.80;19.27;;;;;;;13.05;90.60;101323.94;1737634;81;25521;-58
2021/09/30 12:51:07;;;;;;;30.52;20.35;;;;;;;13.09;90.92;101320.06;1741914;82;26376;-59
2021/09/30 12:53:53;;;;;;;29.42;22.02;;;;;;;13.13;91.20;101323.80;1741996;82;25476;-59
2021/09/30 12:56:31;;;;;;;26.95;21.37;;;;;;;13.14;91.17;101318.61;1741904;81;28103;-59
2021/09/30 12:59:14;;;;;;;29.87;21.13;;;;;;;13.18;91.40;101321.55;1740278;82;25471;-62
2021/09/30 13:01:44;;;;;;;32.42;19.98;;;;;;;13.20;91.28;101320.69;1741997;82;25506;-61
2021/09/30 13:04:24;;;;;;;29.32;20.23;;;;;;;13.20;91.08;101322.84;1711516;82;25515;-61
2021/09/30 13:07:01;;;;;;;25.57;19.87;;;;;;;13.20;90.80;101326.13;1741943;81;25673;-60
2021/09/30 13:09:33;;;;;;;30.82;19.85;;;;;;;13.17;90.35;101319.93;1706322;82;27524;-61
2021/09/30 13:12:17;;;;;;;25.35;18.20;;;;;;;13.15;90.33;101325.66;1741862;82;25842;-60
2021/09/30 13:14:53;;;;;;;28.52;19.20;;;;;;;13.13;90.37;101326.52;1741955;81;25255;-60
2021/09/30 13:21:09;;;;;;;28.50;19.10;;;;;;;13.10;90.38;101330.39;1693400;83;25639;-60
2021/09/30 13:23:36;;;;;;;26.73;19.67;;;;;;;13.07;90.50;101333.94;1693286;84;27321;-60
2021/09/30 13:26:02;;;;;;;30.82;19.77;;;;;;;13.07;90.42;101331.78;1693095;84;25783;-60
2021/09/30 13:28:29;;;;;;;32.03;19.85;;;;;;;13.06;90.37;101332.91;1693170;84;25626;-61
2021/09/30 13:30:56;;;;;;;24.10;18.32;;;;;;;13.04;90.44;101337.28;1693087;84;25662;-61
2021/09/30 13:33:23;;;;;;;29.12;19.92;;;;;;;13.02;90.51;101338.67;1693203;84;25559;-61
2021/09/30 13:35:49;;;;;;;27.22;20.00;;;;;;;13.02;90.46;101343.54;1693084;84;27296;-59
2021/09/30 13:38:16;;;;;;;28.80;19.80;;;;;;;13.00;90.44;101349.83;1693000;84;25652;-59
2021/09/30 13:40:43;;;;;;;28.42;19.27;;;;;;;12.98;90.45;101338.47;1692969;84;25576;-59
2021/09/30 13:43:12;;;;;;;27.82;20.75;;;;;;;12.97;90.44;101344.99;1693126;84;25705;-61
2021/09/30 13:45:40;;;;;;;31.20;20.30;;;;;;;12.96;90.29;101344.76;1693134;84;25521;-59
2021/09/30 13:48:07;;;;;;;28.42;20.25;;;;;;;12.92;90.19;101340.22;1693401;84;27667;-59
2021/09/30 13:50:36;;;;;;;26.75;19.35;;;;;;;12.87;89.85;101339.22;1693025;84;25770;-60
2021/09/30 13:53:04;;;;;;;30.40;20.63;;;;;;;12.84;89.94;101347.16;1693313;84;25657;-60
2021/09/30 13:55:32;;;;;;;30.02;20.05;;;;;;;12.81;90.10;101347.19;1691621;84;25777;-61
2021/09/30 13:57:59;;;;;;;26.30;19.37;;;;;;;12.79;90.20;101341.81;1731318;81;25699;-61
2021/09/30 14:00:27;;;;;;;26.90;18.30;;;;;;;12.77;90.10;101340.75;1751717;81;27328;-60
2021/09/30 14:02:54;;;;;;;26.50;19.42;;;;;;;12.74;90.08;101340.55;1752160;81;25504;-61
2021/09/30 14:05:21;;;;;;;34.45;20.68;;;;;;;12.75;90.69;101342.14;1752160;81;25539;-60
2021/09/30 14:07:49;;;;;;;28.57;20.10;;;;;;;12.76;90.71;101341.05;1752233;81;25782;-59
2021/09/30 14:10:19;;;;;;;30.92;20.50;;;;;;;12.78;90.76;101340.19;1752140;81;25558;-59
2021/09/30 14:12:49;;;;;;;26.85;20.45;;;;;;;12.78;90.80;101338.83;1752126;81;27926;-59
2021/09/30 14:15:16;;;;;;;30.62;20.02;;;;;;;12.80;90.69;101342.05;1751833;81;26363;-59
2021/09/30 14:17:42;;;;;;;26.93;20.48;;;;;;;12.79;90.83;101339.89;1740513;81;26431;-59
2021/09/30 14:20:11;;;;;;;25.90;20.32;;;;;;;12.81;90.96;101343.11;1741859;82;25702;-59
2021/09/30 14:22:39;;;;;;;25.20;18.30;;;;;;;12.81;90.83;101340.95;1742222;81;25694;-59
2021/09/30 14:25:09;;;;;;;27.70;20.88;;;;;;;12.83;90.84;101346.33;1742032;82;27296;-59
2021/09/30 14:27:36;;;;;;;34.20;19.65;;;;;;;12.83;90.58;101342.81;1742097;81;25732;-60
2021/09/30 14:30:05;;;;;;;25.00;18.62;;;;;;;12.82;90.56;101342.55;1742046;82;25636;-59
2021/09/30 14:32:32;;;;;;;27.67;19.30;;;;;;;12.80;90.33;101346.92;1741455;82;25870;-60
2021/09/30 14:34:59;;;;;;;26.95;19.30;;;;;;;12.78;90.52;101345.06;1741497;82;25455;-60
2021/09/30 14:37:26;;;;;;;28.45;19.42;;;;;;;12.78;90.42;101343.70;1741632;81;27332;-60
2021/09/30 14:39:52;;;;;;;32.13;20.23;;;;;;;12.78;90.66;101342.91;1741774;82;25745;-59
2021/09/30 14:42:19;;;;;;;25.27;19.05;;;;;;;12.79;90.70;101344.53;1740464;82;25794;-60
2021/09/30 14:44:47;;;;;;;23.07;18.92;;;;;;;12.80;90.84;101342.84;1740779;82;25673;-59
2021/09/30 14:47:15;;;;;;;29.63;18.77;;;;;;;12.77;90.21;101342.11;1742034;82;25540;-61
2021/09/30 14:49:45;;;;;;;26.33;19.77;;;;;;;12.76;90.38;101342.41;1742045;81;27295;-57
2021/09/30 14:52:17;;;;;;;26.48;20.27;;;;;;;12.75;90.28;101343.50;1741971;82;25676;-59
2021/09/30 14:54:45;;;;;;;24.20;18.45;;;;;;;12.71;90.27;101340.57;1742139;81;25662;-59
2021/09/30 14:57:12;;;;;;;23.83;18.12;;;;;;;12.68;90.26;101337.91;1742199;82;26262;-58
2021/09/30 14:59:39;;;;;;;26.17;19.15;;;;;;;12.66;90.06;101336.02;1742025;82;25491;-59
2021/09/30 15:02:06;;;;;;;29.72;19.10;;;;;;;12.64;90.08;101334.73;1741989;82;27774;-59
2021/09/30 15:04:35;;;;;;;26.33;18.80;;;;;;;12.64;90.35;101338.23;1741899;81;25723;-61
2021/09/30 15:07:04;;;;;;;23.53;18.40;;;;;;;12.64;90.36;101347.73;1741450;81;25700;-60
2021/09/30 15:09:34;;;;;;;25.55;17.67;;;;;;;12.63;90.54;101336.64;1741765;82;26362;-59
2021/09/30 15:12:03;;;;;;;26.25;18.40;;;;;;;12.63;90.60;101340.72;1741785;81;25712;-59
2021/09/30 15:14:32;;;;;;;26.87;19.40;;;;;;;12.63;90.53;101342.08;1742148;81;27966;-59
2021/09/30 15:17:11;;;;;;;28.05;19.15;;;;;;;12.62;90.48;101343.16;1741803;81;25708;-57